Time;durP1;ratioP1;P1;durP2;ratioP2;P2;SDS_P1;SDS_P2;PMS_P1;PMS_P2;Temp;Humidity;BMP_temperature;BMP_pressure;BME280_temperature;BME280_humidity;BME280_pressure;Samples;Min_cycle;Max_cycle;Signal;HPM_P1;HPM_P2
2023/12/28 00:00:50;;;;;;;6.75;3.88;;;;;;;9.58;100.00;100777.22;6084670;19;20014;-75
2023/12/28 00:02:55;;;;;;;11.10;4.18;;;;;;;9.62;100.00;100780.63;6087504;19;20018;-75
2023/12/28 00:04:57;;;;;;;6.40;3.30;;;;;;;9.63;100.00;100770.03;6086428;19;20075;-74
2023/12/28 00:07:05;;;;;;;11.80;4.07;;;;;;;9.60;100.00;100771.94;6083779;19;20010;-74
2023/12/28 00:09:09;;;;;;;8.40;3.03;;;;;;;9.57;100.00;100757.16;6085378;19;20010;-74
2023/12/28 00:11:16;;;;;;;10.75;4.25;;;;;;;9.55;100.00;100761.59;6086125;19;20038;-73
2023/12/28 00:13:21;;;;;;;8.65;3.45;;;;;;;9.62;100.00;100770.13;6083548;19;20464;-74
2023/12/28 00:15:26;;;;;;;9.32;3.55;;;;;;;9.56;100.00;100786.09;6081850;19;20011;-74
2023/12/28 00:17:31;;;;;;;10.77;4.00;;;;;;;9.56;100.00;100771.22;6086692;19;20011;-77
2023/12/28 00:19:39;;;;;;;5.75;3.03;;;;;;;9.63;100.00;100771.81;6084579;19;20011;-73
2023/12/28 00:21:44;;;;;;;5.35;3.20;;;;;;;9.62;100.00;100759.63;6084294;19;20475;-74
2023/12/28 00:23:53;;;;;;;9.55;3.88;;;;;;;9.64;100.00;100769.16;6084404;19;20761;-74
2023/12/28 00:25:59;;;;;;;12.18;2.88;;;;;;;9.66;100.00;100762.09;6085683;19;20014;-74
2023/12/28 00:28:06;;;;;;;7.13;3.15;;;;;;;9.65;100.00;100770.84;6084288;19;20459;-74
2023/12/28 00:30:17;;;;;;;5.70;2.83;;;;;;;9.64;100.00;100784.88;6083875;19;20478;-74
2023/12/28 00:32:19;;;;;;;11.82;4.00;;;;;;;9.63;100.00;100770.03;6083408;19;21057;-75
2023/12/28 00:34:26;;;;;;;10.23;2.90;;;;;;;9.60;100.00;100788.53;6083532;19;20979;-76
2023/12/28 00:36:33;;;;;;;10.48;3.30;;;;;;;9.62;100.00;100791.97;6085965;19;20420;-74
2023/12/28 00:38:36;;;;;;;5.53;2.70;;;;;;;9.59;100.00;100786.84;6079054;19;20007;-75
2023/12/28 00:40:44;;;;;;;10.63;3.42;;;;;;;9.57;100.00;100793.03;6082584;19;20013;-74
2023/12/28 00:42:49;;;;;;;6.32;2.95;;;;;;;9.58;100.00;100785.09;6083931;19;20006;-74
2023/12/28 00:44:52;;;;;;;8.65;3.08;;;;;;;9.57;100.00;100783.41;6086442;19;20070;-74
2023/12/28 00:46:57;;;;;;;;;;;;;;;9.60;100.00;100795.56;6082032;19;20029;-74
2023/12/28 00:49:02;;;;;;;5.43;2.55;;;;;;;9.65;100.00;100781.34;6084434;19;20066;-74
2023/12/28 00:51:07;;;;;;;9.68;3.25;;;;;;;9.61;100.00;100787.63;6084375;19;20749;-74
2023/12/28 00:53:12;;;;;;;5.65;3.25;;;;;;;9.57;100.00;100787.78;6079893;19;20545;-74
2023/12/28 00:55:15;;;;;;;6.70;2.97;;;;;;;9.54;100.00;100786.13;6084406;19;20010;-74
2023/12/28 00:57:24;;;;;;;7.78;3.20;;;;;;;9.53;100.00;100784.44;6084510;19;20015;-74
2023/12/28 00:59:26;;;;;;;9.57;3.55;;;;;;;9.58;100.00;100776.38;6082954;19;20526;-74
2023/12/28 01:01:33;;;;;;;7.22;2.50;;;;;;;9.55;100.00;100782.59;6084390;19;20006;-74
2023/12/28 01:03:38;;;;;;;9.43;3.38;;;;;;;9.49;100.00;100774.97;6084816;19;20030;-74
2023/12/28 01:05:47;;;;;;;7.80;3.30;;;;;;;9.43;100.00;100781.28;6084113;19;20006;-72
2023/12/28 01:07:54;;;;;;;13.15;3.45;;;;;;;9.50;100.00;100779.28;6082787;19;20006;-73
2023/12/28 01:10:02;;;;;;;15.73;3.40;;;;;;;9.59;100.00;100770.25;6084669;19;20007;-73
2023/12/28 01:12:08;;;;;;;7.03;3.28;;;;;;;9.58;100.00;100765.88;6081416;19;20007;-73
2023/12/28 01:14:16;;;;;;;11.60;3.40;;;;;;;9.54;100.00;100778.28;6085502;19;20015;-74
2023/12/28 01:16:23;;;;;;;3.78;2.08;;;;;;;9.56;100.00;100773.84;6084078;19;20021;-74
2023/12/28 01:18:28;;;;;;;6.50;2.72;;;;;;;9.57;100.00;100779.94;6083170;19;20336;-74
2023/12/28 01:20:37;;;;;;;5.95;2.47;;;;;;;9.56;100.00;100784.31;6081116;19;20760;-73
2023/12/28 01:22:43;;;;;;;6.47;2.95;;;;;;;9.51;100.00;100780.16;6081307;19;20525;-74
2023/12/28 01:24:50;;;;;;;6.80;2.70;;;;;;;9.50;100.00;100770.56;6085066;19;20486;-74
2023/12/28 01:26:56;;;;;;;5.90;2.95;;;;;;;9.49;100.00;100776.72;6082779;19;20085;-75
2023/12/28 01:29:02;;;;;;;7.18;3.00;;;;;;;9.41;100.00;100775.25;6083980;19;20477;-74
2023/12/28 01:31:10;;;;;;;3.05;2.75;;;;;;;9.48;100.00;100799.50;6085247;19;20507;-75
2023/12/28 01:33:16;;;;;;;12.63;3.63;;;;;;;9.47;100.00;100782.03;6081008;19;20010;-74
2023/12/28 01:35:22;;;;;;;5.82;3.00;;;;;;;9.50;100.00;100775.81;6083657;19;20017;-75
2023/12/28 01:37:30;;;;;;;8.77;3.08;;;;;;;9.49;100.00;100782.84;6081757;19;20075;-75
2023/12/28 01:39:35;;;;;;;5.45;2.95;;;;;;;9.47;100.00;100792.53;6075938;19;20010;-75
2023/12/28 01:41:40;;;;;;;8.30;3.42;;;;;;;9.44;100.00;100798.72;6083056;19;20007;-75
2023/12/28 01:43:46;;;;;;;7.78;3.10;;;;;;;9.49;100.00;100805.59;6084483;19;20045;-75
2023/12/28 01:45:51;;;;;;;6.95;2.92;;;;;;;9.54;100.00;100799.25;6081955;19;20032;-75
2023/12/28 01:48:03;;;;;;;13.50;4.40;;;;;;;9.54;100.00;100798.41;6081443;19;20135;-74
2023/12/28 01:50:12;;;;;;;5.32;3.00;;;;;;;9.54;100.00;100801.88;6082756;19;20367;-74
2023/12/28 01:52:17;;;;;;;9.77;4.30;;;;;;;9.50;100.00;100802.91;6084136;19;20010;-74
2023/12/28 01:54:22;;;;;;;6.90;3.33;;;;;;;9.53;100.00;100810.69;6080737;19;20021;-73
2023/12/28 01:56:28;;;;;;;7.65;3.40;;;;;;;9.59;100.00;100799.94;6082679;19;20007;-74
2023/12/28 01:58:35;;;;;;;5.57;2.72;;;;;;;9.51;100.00;100814.25;6080255;19;20018;-74
2023/12/28 02:00:42;;;;;;;4.65;2.65;;;;;;;9.52;100.00;100815.97;6081358;19;20026;-74
2023/12/28 02:02:47;;;;;;;6.75;2.78;;;;;;;9.50;100.00;100813.38;6075588;19;20487;-75
2023/12/28 02:04:55;;;;;;;7.28;2.85;;;;;;;9.43;100.00;100804.06;6082339;19;20030;-75
2023/12/28 02:07:02;;;;;;;4.68;2.70;;;;;;;9.53;100.00;100815.03;6082386;19;20003;-76
2023/12/28 02:09:05;;;;;;;6.40;3.42;;;;;;;9.38;100.00;100812.06;6080777;19;20122;-75
2023/12/28 02:11:10;;;;;;;4.35;2.63;;;;;;;9.48;100.00;100820.47;6081831;19;20053;-75
2023/12/28 02:13:16;;;;;;;11.38;3.15;;;;;;;9.43;100.00;100818.00;6082008;19;20449;-74
2023/12/28 02:15:21;;;;;;;7.38;3.05;;;;;;;9.48;100.00;100811.72;6081747;19;20034;-74
2023/12/28 02:17:46;;;;;;;10.85;3.53;;;;;;;9.44;100.00;100801.34;6081561;19;20034;-75
2023/12/28 02:19:57;;;;;;;6.72;2.92;;;;;;;9.36;100.00;100813.88;6080410;19;20006;-74
2023/12/28 02:22:02;;;;;;;5.03;2.75;;;;;;;9.40;100.00;100807.63;6082149;19;20574;-73
2023/12/28 02:24:07;;;;;;;9.52;2.88;;;;;;;9.42;100.00;100803.16;6081304;19;20313;-74
2023/12/28 02:26:15;;;;;;;4.80;2.78;;;;;;;9.37;100.00;100806.88;6079912;19;20025;-73
2023/12/28 02:28:20;;;;;;;6.13;3.00;;;;;;;9.35;100.00;100788.59;6077905;19;19999;-73
2023/12/28 02:30:27;;;;;;;9.30;3.60;;;;;;;9.38;100.00;100790.25;6082244;19;20838;-73
2023/12/28 02:32:45;;;;;;;9.45;2.90;;;;;;;9.30;100.00;100798.38;6083740;19;20011;-73
2023/12/28 02:34:55;;;;;;;10.63;2.90;;;;;;;9.29;100.00;100798.44;6073855;19;20031;-74
2023/12/28 02:37:04;;;;;;;7.88;3.22;;;;;;;9.28;100.00;100799.34;6081300;19;20003;-74
2023/12/28 02:39:12;;;;;;;7.45;2.65;;;;;;;9.34;100.00;100813.09;6089041;19;20511;-73
2023/12/28 02:41:21;;;;;;;7.60;3.00;;;;;;;9.40;100.00;100818.13;6086480;19;20082;-74
2023/12/28 02:43:26;;;;;;;10.45;3.08;;;;;;;9.45;100.00;100817.94;6084760;19;20080;-75
2023/12/28 02:45:32;;;;;;;12.55;3.28;;;;;;;9.50;100.00;100813.38;6084766;19;20009;-73
2023/12/28 02:47:38;;;;;;;7.43;3.80;;;;;;;9.48;100.00;100810.00;6085867;19;20332;-76
2023/12/28 02:49:43;;;;;;;5.70;2.55;;;;;;;9.46;100.00;100811.81;6086753;19;20014;-74
2023/12/28 02:51:49;;;;;;;4.65;2.47;;;;;;;9.41;100.00;100817.22;6083473;19;20016;-74
2023/12/28 02:53:54;;;;;;;8.88;2.45;;;;;;;9.36;100.00;100810.41;6083521;19;20145;-74
2023/12/28 02:55:59;;;;;;;4.93;2.42;;;;;;;9.40;100.00;100812.00;6087283;19;20023;-75
2023/12/28 02:58:09;;;;;;;7.22;2.63;;;;;;;9.42;100.00;100797.06;6086537;19;20664;-75
2023/12/28 03:00:15;;;;;;;8.35;2.88;;;;;;;9.52;100.00;100815.97;6087186;19;20344;-74
2023/12/28 03:02:20;;;;;;;5.47;2.38;;;;;;;9.53;100.00;100800.19;6084755;19;20006;-74
2023/12/28 03:04:25;;;;;;;4.85;2.50;;;;;;;9.48;100.00;100799.50;6085882;19;20015;-74
2023/12/28 03:06:30;;;;;;;5.28;2.25;;;;;;;9.47;100.00;100789.91;6086205;19;20011;-75
2023/12/28 03:08:35;;;;;;;6.80;2.53;;;;;;;9.50;100.00;100800.28;6086114;19;20010;-75
2023/12/28 03:10:41;;;;;;;6.38;2.50;;;;;;;9.50;100.00;100787.16;6084680;19;20006;-73
2023/12/28 03:12:43;;;;;;;8.38;2.70;;;;;;;9.51;100.00;100794.13;6083833;19;20006;-74
2023/12/28 03:14:50;;;;;;;5.45;2.47;;;;;;;9.46;100.00;100775.09;6083973;19;20002;-74
2023/12/28 03:16:53;;;;;;;9.32;2.42;;;;;;;9.45;100.00;100775.97;6086709;19;20007;-74
2023/12/28 03:18:58;;;;;;;15.50;3.15;;;;;;;9.52;100.00;100781.88;6084942;19;20003;-75
2023/12/28 03:21:03;;;;;;;7.65;2.15;;;;;;;9.53;100.00;100779.19;6086054;19;20294;-75
2023/12/28 03:23:08;;;;;;;6.20;2.65;;;;;;;9.52;100.00;100794.97;6086915;19;20022;-73
2023/12/28 03:25:14;;;;;;;10.85;3.13;;;;;;;9.52;100.00;100790.59;6082882;19;20007;-74
2023/12/28 03:27:19;;;;;;;11.02;2.65;;;;;;;9.41;100.00;100775.25;6082733;19;20077;-74
2023/12/28 03:29:24;;;;;;;6.22;2.58;;;;;;;9.42;100.00;100771.69;6085707;19;20046;-73
2023/12/28 03:31:34;;;;;;;5.82;2.60;;;;;;;9.47;100.00;100781.19;6089683;19;20471;-75
2023/12/28 03:33:39;;;;;;;6.40;2.30;;;;;;;9.43;100.00;100765.56;6082956;19;20433;-74
2023/12/28 03:35:44;;;;;;;5.60;2.95;;;;;;;9.36;100.00;100774.56;6084682;19;20365;-74
2023/12/28 03:37:49;;;;;;;10.07;2.75;;;;;;;9.43;100.00;100770.81;6084585;19;20355;-73
2023/12/28 03:39:54;;;;;;;11.00;2.55;;;;;;;9.44;100.00;100783.00;6083910;19;20407;-75
2023/12/28 03:41:59;;;;;;;10.95;3.25;;;;;;;9.45;100.00;100760.22;6086429;19;20495;-72
2023/12/28 03:44:08;;;;;;;8.27;2.78;;;;;;;9.39;100.00;100776.22;6085459;19;20010;-73
2023/12/28 03:46:14;;;;;;;9.82;2.70;;;;;;;9.38;100.00;100777.13;6084429;19;20049;-74
2023/12/28 03:48:22;;;;;;;8.45;2.63;;;;;;;9.42;100.00;100769.06;6083332;19;20011;-73
2023/12/28 03:50:27;;;;;;;7.63;2.47;;;;;;;9.40;100.00;100764.78;6086797;19;20319;-74
2023/12/28 03:52:32;;;;;;;6.20;2.10;;;;;;;9.39;100.00;100771.81;6083377;19;20014;-75
2023/12/28 03:54:38;;;;;;;5.15;2.47;;;;;;;9.36;100.00;100768.47;6085474;19;19999;-76
2023/12/28 03:56:43;;;;;;;7.50;2.50;;;;;;;9.40;100.00;100775.28;6086125;19;20252;-73
2023/12/28 03:58:48;;;;;;;7.10;2.55;;;;;;;9.43;100.00;100772.56;6085813;19;20010;-74
2023/12/28 04:00:53;;;;;;;4.50;2.30;;;;;;;9.46;100.00;100759.34;6082428;19;20717;-75
2023/12/28 04:02:59;;;;;;;5.63;2.42;;;;;;;9.50;100.00;100774.03;6083190;19;20076;-73
2023/12/28 04:05:07;;;;;;;8.52;2.75;;;;;;;9.45;100.00;100771.59;6080719;19;20318;-74
2023/12/28 04:07:13;;;;;;;10.45;2.70;;;;;;;9.52;100.00;100756.47;6085910;19;20229;-75
2023/12/28 04:09:18;;;;;;;4.55;3.30;;;;;;;9.55;100.00;100758.97;6085375;19;20006;-73
2023/12/28 04:11:24;;;;;;;8.05;2.08;;;;;;;9.62;100.00;100757.84;6087039;19;20606;-75
2023/12/28 04:13:28;;;;;;;7.45;2.50;;;;;;;9.63;100.00;100767.41;6083342;19;21115;-74
2023/12/28 04:15:33;;;;;;;8.05;2.80;;;;;;;9.67;100.00;100774.28;6082341;19;20010;-74
2023/12/28 04:17:38;;;;;;;8.77;3.50;;;;;;;9.63;100.00;100772.66;6083795;19;20459;-75
2023/12/28 04:19:44;;;;;;;16.73;2.70;;;;;;;9.64;100.00;100768.31;6084076;19;20003;-75
2023/12/28 04:21:52;;;;;;;5.97;2.25;;;;;;;9.61;100.00;100773.63;6084720;19;20158;-74
2023/12/28 04:23:55;;;;;;;9.27;2.85;;;;;;;9.71;100.00;100756.63;6085044;19;20011;-74
2023/12/28 04:26:01;;;;;;;5.65;2.25;;;;;;;9.70;100.00;100765.44;6084153;19;20024;-74
2023/12/28 04:28:06;;;;;;;6.45;2.33;;;;;;;9.74;100.00;100771.41;6083444;19;20006;-75
2023/12/28 04:30:15;;;;;;;13.88;3.38;;;;;;;9.78;100.00;100775.63;6085625;19;20006;-74
2023/12/28 04:32:20;;;;;;;13.18;2.42;;;;;;;9.85;100.00;100764.00;6086347;19;20006;-75
2023/12/28 04:34:25;;;;;;;4.72;2.00;;;;;;;9.89;100.00;100762.94;6085780;19;20102;-74
2023/12/28 04:36:31;;;;;;;5.60;1.90;;;;;;;9.88;100.00;100783.09;6085735;19;20502;-74
2023/12/28 04:38:44;;;;;;;9.38;2.22;;;;;;;9.80;100.00;100774.66;6079648;19;20453;-74
2023/12/28 04:40:51;;;;;;;3.83;2.08;;;;;;;9.84;100.00;100794.63;6083517;19;20395;-74
2023/12/28 04:42:53;;;;;;;11.50;2.33;;;;;;;9.92;100.00;100775.09;6083127;19;20461;-74
2023/12/28 04:45:00;;;;;;;8.75;2.70;;;;;;;9.89;100.00;100784.78;6083640;19;20039;-74
2023/12/28 04:47:06;;;;;;;9.35;2.60;;;;;;;9.95;100.00;100783.69;6083497;19;20010;-74
2023/12/28 04:49:16;;;;;;;11.43;3.08;;;;;;;9.95;100.00;100786.31;6081199;19;20030;-73
2023/12/28 04:51:21;;;;;;;8.23;2.10;;;;;;;9.95;100.00;100783.69;6080902;19;20488;-74
2023/12/28 04:53:26;;;;;;;9.52;2.47;;;;;;;9.95;100.00;100781.06;6080388;19;20463;-75
2023/12/28 04:55:35;;;;;;;7.78;2.35;;;;;;;9.97;100.00;100812.53;6082758;19;20002;-75
2023/12/28 04:57:46;;;;;;;10.48;2.67;;;;;;;9.99;100.00;100806.31;6079818;19;20017;-74
2023/12/28 04:59:52;;;;;;;5.70;2.03;;;;;;;10.00;100.00;100797.50;6083607;19;20388;-75
2023/12/28 05:01:58;;;;;;;9.93;2.47;;;;;;;10.01;100.00;100790.50;6082379;19;20015;-74
2023/12/28 05:04:05;;;;;;;18.70;3.28;;;;;;;9.98;100.00;100798.47;6081169;19;20010;-74
2023/12/28 05:06:07;;;;;;;8.02;2.30;;;;;;;10.03;100.00;100797.41;6082987;19;20003;-74
2023/12/28 05:08:12;;;;;;;;;;;;;;;10.02;100.00;100802.72;6084120;19;20002;-74
2023/12/28 05:10:22;;;;;;;5.28;1.75;;;;;;;10.01;100.00;100799.22;6082315;19;19910;-75
2023/12/28 05:12:30;;;;;;;7.53;2.50;;;;;;;10.01;100.00;100793.97;6083640;19;20025;-74
2023/12/28 05:14:50;;;;;;;5.55;2.05;;;;;;;10.01;100.00;100804.47;6082704;19;20371;-75
2023/12/28 05:16:54;;;;;;;14.35;2.83;;;;;;;9.98;100.00;100799.34;6081306;19;20385;-74
2023/12/28 05:19:03;;;;;;;9.30;2.67;;;;;;;9.97;100.00;100802.03;6084431;19;20014;-75
2023/12/28 05:21:09;;;;;;;9.18;2.13;;;;;;;9.99;100.00;100801.06;6084393;19;20009;-75
2023/12/28 05:23:16;;;;;;;9.60;2.35;;;;;;;9.98;100.00;100803.72;6084520;19;20034;-74
2023/12/28 05:25:21;;;;;;;10.35;2.80;;;;;;;9.94;100.00;100796.91;6077571;19;20025;-73
2023/12/28 05:27:29;;;;;;;12.13;2.35;;;;;;;9.94;100.00;100797.75;6083660;19;20022;-74
2023/12/28 05:29:37;;;;;;;6.00;1.92;;;;;;;10.00;100.00;100800.13;6082732;19;20019;-74
2023/12/28 05:31:47;;;;;;;16.65;2.45;;;;;;;9.98;100.00;100803.72;6082440;19;20003;-75
2023/12/28 05:33:53;;;;;;;12.00;2.70;;;;;;;10.01;100.00;100804.47;6081416;19;20014;-75
2023/12/28 05:35:58;;;;;;;10.43;2.63;;;;;;;10.01;100.00;100804.47;6081564;19;20569;-74
2023/12/28 05:38:00;;;;;;;9.35;2.60;;;;;;;10.01;100.00;100798.38;6081197;19;20002;-74
2023/12/28 05:40:09;;;;;;;14.60;3.20;;;;;;;9.98;100.00;100798.47;6083309;19;20106;-74
2023/12/28 05:42:16;;;;;;;14.85;2.33;;;;;;;10.02;100.00;100806.19;6081806;19;20010;-74
2023/12/28 05:44:26;;;;;;;9.82;2.92;;;;;;;10.03;100.00;100807.03;6081094;19;20019;-76
2023/12/28 05:46:33;;;;;;;17.35;3.08;;;;;;;9.94;100.00;100805.63;6084431;19;20007;-74
2023/12/28 05:48:38;;;;;;;8.52;2.15;;;;;;;10.02;100.00;100821.09;6084048;19;20570;-74
2023/12/28 05:50:47;;;;;;;20.33;3.15;;;;;;;10.05;100.00;100813.94;6077560;19;20626;-75
2023/12/28 05:52:52;;;;;;;9.07;2.50;;;;;;;10.04;100.00;100807.00;6077407;19;20011;-75
2023/12/28 05:54:57;;;;;;;7.35;1.85;;;;;;;10.05;100.00;100805.22;6079926;19;20011;-75
2023/12/28 05:57:03;;;;;;;15.52;3.38;;;;;;;10.01;100.00;100783.47;6083776;19;20086;-75
2023/12/28 05:59:08;;;;;;;8.48;2.65;;;;;;;9.98;100.00;100807.22;6082276;19;20082;-74
2023/12/28 06:01:18;;;;;;;8.07;2.35;;;;;;;10.00;100.00;100802.75;6081821;19;20015;-74
2023/12/28 06:03:27;;;;;;;8.20;1.80;;;;;;;10.02;100.00;100813.22;6081901;19;20347;-75
2023/12/28 06:05:35;;;;;;;6.25;1.95;;;;;;;10.03;100.00;100818.41;6077029;19;20522;-75
2023/12/28 06:07:44;;;;;;;13.52;2.53;;;;;;;10.06;100.00;100818.28;6083168;19;20006;-74
2023/12/28 06:09:49;;;;;;;12.70;2.55;;;;;;;10.01;100.00;100820.25;6081137;19;20014;-75
2023/12/28 06:11:56;;;;;;;12.00;2.65;;;;;;;10.08;100.00;100821.72;6081679;19;20004;-74
2023/12/28 06:14:02;;;;;;;17.70;3.08;;;;;;;10.05;100.00;100831.47;6080821;19;20035;-74
2023/12/28 06:16:09;;;;;;;13.70;2.47;;;;;;;10.10;100.00;100835.63;6080052;19;20002;-75
2023/12/28 06:18:21;;;;;;;11.48;3.08;;;;;;;10.10;100.00;100853.16;6079579;19;20020;-74
2023/12/28 06:20:27;;;;;;;16.90;2.70;;;;;;;10.04;100.00;100827.13;6080825;19;20026;-75
2023/12/28 06:22:32;;;;;;;8.85;2.45;;;;;;;10.02;100.00;100832.44;6081411;19;20010;-75
2023/12/28 06:24:40;;;;;;;15.45;4.15;;;;;;;10.10;100.00;100838.25;6080922;19;20006;-75
2023/12/28 06:26:46;;;;;;;10.00;2.88;;;;;;;10.14;100.00;100825.88;6080273;19;20003;-75
2023/12/28 06:28:53;;;;;;;7.40;2.63;;;;;;;10.13;100.00;100823.28;6081315;19;20010;-74
2023/12/28 06:31:00;;;;;;;6.40;2.10;;;;;;;10.13;100.00;100828.53;6081595;19;20010;-76
2023/12/28 06:33:06;;;;;;;11.32;2.55;;;;;;;10.10;100.00;100827.75;6080480;19;20788;-76
2023/12/28 06:35:16;;;;;;;10.15;2.55;;;;;;;10.02;100.00;100816.69;6081900;19;20007;-76
2023/12/28 06:37:21;;;;;;;15.15;3.53;;;;;;;10.04;100.00;100829.75;6080702;19;20018;-76
2023/12/28 06:39:26;;;;;;;15.18;2.42;;;;;;;9.91;100.00;100826.75;6081265;19;20315;-78
2023/12/28 06:41:31;;;;;;;17.38;3.15;;;;;;;9.93;100.00;100839.81;6080715;19;20415;-74
2023/12/28 06:43:37;;;;;;;11.30;2.25;;;;;;;9.86;100.00;100844.44;6078681;19;20010;-74
2023/12/28 06:45:42;;;;;;;13.52;2.80;;;;;;;9.85;100.00;100845.38;6078226;19;20015;-73
2023/12/28 06:47:47;;;;;;;13.55;3.28;;;;;;;9.82;100.00;100838.47;6082023;19;20017;-76
2023/12/28 06:49:54;;;;;;;15.45;2.97;;;;;;;9.72;100.00;100846.72;6079465;19;20009;-76
2023/12/28 06:52:05;;;;;;;11.07;2.67;;;;;;;9.64;100.00;100855.72;6079168;19;20034;-75
2023/12/28 06:54:10;;;;;;;11.30;3.15;;;;;;;9.60;100.00;100854.13;6080611;19;20034;-76
2023/12/28 06:56:15;;;;;;;20.77;3.58;;;;;;;9.58;100.00;100849.84;6080771;19;20011;-73
2023/12/28 06:58:20;;;;;;;8.02;1.98;;;;;;;9.66;100.00;100850.41;6079906;19;20582;-76
2023/12/28 07:00:27;;;;;;;15.05;2.85;;;;;;;9.58;100.00;100836.72;6077876;19;20348;-74
2023/12/28 07:02:34;;;;;;;11.65;2.08;;;;;;;9.59;100.00;100860.28;6080213;19;20056;-76
2023/12/28 07:04:39;;;;;;;10.23;2.78;;;;;;;9.57;100.00;100863.88;6083528;19;20010;-75
2023/12/28 07:06:44;;;;;;;13.80;3.28;;;;;;;9.63;100.00;100866.28;6082102;19;20016;-78
2023/12/28 07:08:52;;;;;;;6.82;2.65;;;;;;;9.65;100.00;100870.56;6082594;19;20003;-76
2023/12/28 07:10:57;;;;;;;9.98;2.55;;;;;;;9.65;100.00;100878.41;6083296;19;20014;-75
2023/12/28 07:13:06;;;;;;;16.02;3.22;;;;;;;9.60;100.00;100872.47;6082554;19;20553;-74
2023/12/28 07:15:14;;;;;;;12.48;3.67;;;;;;;9.63;100.00;100869.75;6081185;19;20059;-75
2023/12/28 07:17:21;;;;;;;8.23;2.55;;;;;;;9.67;100.00;100873.97;6081787;19;20370;-75
2023/12/28 07:19:24;;;;;;;10.80;3.53;;;;;;;9.70;100.00;100878.25;6083473;19;20014;-76
2023/12/28 07:21:30;;;;;;;;;;;;;;;9.70;100.00;100888.75;6086562;19;20254;-76
2023/12/28 07:23:36;;;;;;;16.08;3.67;;;;;;;9.74;100.00;100897.38;6086514;19;19931;-76
2023/12/28 07:25:44;;;;;;;15.90;3.72;;;;;;;9.81;100.00;100886.59;6088986;19;20007;-76
2023/12/28 07:27:50;;;;;;;9.82;2.70;;;;;;;9.78;100.00;100896.34;6087554;19;20018;-75
2023/12/28 07:29:55;;;;;;;13.45;2.90;;;;;;;9.81;100.00;100904.97;6082202;19;20463;-76
2023/12/28 07:32:00;;;;;;;12.35;2.80;;;;;;;9.83;100.00;100897.06;6082835;19;20094;-75
2023/12/28 07:34:08;;;;;;;22.88;3.05;;;;;;;9.85;100.00;100903.09;6085218;19;20015;-76
2023/12/28 07:36:17;;;;;;;11.00;3.00;;;;;;;9.81;100.00;100907.59;6086301;19;20341;-76
2023/12/28 07:38:22;;;;;;;12.40;2.85;;;;;;;9.83;100.00;100902.28;6086738;19;20817;-75
2023/12/28 07:40:27;;;;;;;5.35;1.80;;;;;;;9.83;100.00;100902.28;6086686;19;20018;-76
2023/12/28 07:42:36;;;;;;;7.70;2.17;;;;;;;9.81;100.00;100909.38;6087410;19;20501;-74
2023/12/28 07:44:42;;;;;;;7.97;2.33;;;;;;;9.83;100.00;100910.16;6085615;19;20015;-75
2023/12/28 07:46:49;;;;;;;12.85;2.75;;;;;;;9.83;100.00;100904.91;6085927;19;20015;-73
2023/12/28 07:48:52;;;;;;;20.15;3.00;;;;;;;9.78;100.00;100902.47;6086461;19;20586;-75
2023/12/28 07:50:58;;;;;;;14.07;2.85;;;;;;;9.82;100.00;100903.19;6083341;19;20018;-74
2023/12/28 07:53:03;;;;;;;21.20;3.53;;;;;;;9.79;100.00;100906.78;6082981;19;20009;-76
2023/12/28 07:55:10;;;;;;;10.90;2.38;;;;;;;9.81;100.00;100912.00;6088497;19;20003;-76
2023/12/28 07:57:19;;;;;;;13.18;3.33;;;;;;;9.80;100.00;100911.13;6086305;19;20006;-78
2023/12/28 07:59:26;;;;;;;13.90;3.03;;;;;;;9.85;100.00;100908.34;6088602;19;20034;-77
2023/12/28 08:01:36;;;;;;;16.10;2.53;;;;;;;9.84;100.00;100917.13;6087302;19;20013;-76
2023/12/28 08:03:47;;;;;;;6.68;1.95;;;;;;;9.84;100.00;100912.72;6086315;19;20905;-74
2023/12/28 08:05:52;;;;;;;9.77;2.15;;;;;;;9.85;100.00;100919.72;6086793;19;20006;-74
2023/12/28 08:08:01;;;;;;;8.90;2.83;;;;;;;9.88;100.00;100911.72;6085867;19;20010;-73
2023/12/28 08:10:06;;;;;;;14.20;3.72;;;;;;;9.85;100.00;100916.22;6085716;19;20469;-75
2023/12/28 08:12:11;;;;;;;7.10;2.53;;;;;;;9.83;100.00;100921.53;6085509;19;20003;-74
2023/12/28 08:14:16;;;;;;;7.63;2.38;;;;;;;9.83;100.00;100915.41;6082600;19;20006;-74
2023/12/28 08:16:24;;;;;;;8.07;2.42;;;;;;;9.82;100.00;100918.94;6084658;19;20011;-75
2023/12/28 08:18:29;;;;;;;19.20;3.22;;;;;;;9.82;100.00;100924.19;6083427;19;20286;-74
2023/12/28 08:20:36;;;;;;;14.13;3.70;;;;;;;9.80;100.00;100937.38;6080284;19;20678;-74
2023/12/28 08:22:43;;;;;;;17.75;3.10;;;;;;;9.85;100.00;100934.59;6086497;19;20037;-76
2023/12/28 08:24:50;;;;;;;8.43;2.08;;;;;;;9.81;100.00;100941.72;6087124;19;20024;-75
2023/12/28 08:26:53;;;;;;;12.88;2.28;;;;;;;9.83;100.00;100939.91;6085123;19;20409;-75
2023/12/28 08:28:58;;;;;;;;;;;;;;;9.82;100.00;100934.69;6086788;19;20007;-74
2023/12/28 08:31:04;;;;;;;7.65;2.90;;;;;;;9.81;100.00;100940.84;6082830;19;20278;-76
2023/12/28 08:33:13;;;;;;;8.98;2.22;;;;;;;9.77;100.00;100923.50;6085937;19;20003;-75
2023/12/28 08:35:19;;;;;;;16.23;2.60;;;;;;;9.79;100.00;100937.44;6084505;19;20014;-75
2023/12/28 08:37:25;;;;;;;5.50;2.10;;;;;;;9.80;100.00;100936.53;6081868;19;20029;-73
2023/12/28 08:39:30;;;;;;;15.48;3.83;;;;;;;9.78;100.00;100938.34;6085120;19;20465;-74
2023/12/28 08:41:36;;;;;;;6.57;2.25;;;;;;;9.78;100.00;100938.34;6083116;19;20032;-76
2023/12/28 08:43:38;;;;;;;11.05;2.63;;;;;;;9.82;100.00;100930.31;6083935;19;20019;-75
2023/12/28 08:45:46;;;;;;;8.60;2.60;;;;;;;9.83;100.00;100941.66;6084522;19;20698;-74
2023/12/28 08:47:51;;;;;;;13.40;2.60;;;;;;;9.84;100.00;100938.97;6083533;19;20041;-74
2023/12/28 08:49:58;;;;;;;8.88;2.10;;;;;;;9.87;100.00;100924.88;6084330;19;20897;-74
2023/12/28 08:52:04;;;;;;;14.48;3.05;;;;;;;9.87;100.00;100949.38;6079420;19;20002;-74
2023/12/28 08:54:09;;;;;;;9.05;2.80;;;;;;;9.95;100.00;100962.22;6080439;19;20015;-75
2023/12/28 08:56:17;;;;;;;14.77;2.78;;;;;;;9.95;100.00;100930.69;6083655;19;20462;-75
2023/12/28 08:58:27;;;;;;;10.63;2.65;;;;;;;9.99;100.00;100947.22;6083852;19;20011;-74
2023/12/28 09:00:32;;;;;;;16.58;2.85;;;;;;;9.93;100.00;100958.81;6082939;19;20061;-77
2023/12/28 09:02:37;;;;;;;21.63;3.50;;;;;;;9.89;100.00;100950.16;6084365;19;20022;-77
2023/12/28 09:04:44;;;;;;;14.70;3.13;;;;;;;9.95;100.00;100951.69;6083270;19;20086;-77
2023/12/28 09:06:54;;;;;;;15.77;3.13;;;;;;;9.97;100.00;100939.38;6085659;19;20102;-76
2023/12/28 09:08:59;;;;;;;11.60;2.08;;;;;;;10.04;100.00;100934.78;6080506;19;20412;-74
2023/12/28 09:11:04;;;;;;;11.40;2.72;;;;;;;10.08;100.00;100952.13;6083168;19;20015;-75
2023/12/28 09:13:18;;;;;;;10.95;2.70;;;;;;;10.07;100.00;100951.28;6080400;19;20073;-75
2023/12/28 09:15:21;;;;;;;7.67;2.27;;;;;;;10.08;100.00;100945.13;6082592;19;20011;-74
2023/12/28 09:17:29;;;;;;;;;;;;;;;10.13;100.00;100955.44;6081834;19;20013;-75
2023/12/28 09:19:34;;;;;;;5.00;2.10;;;;;;;10.17;100.00;100956.19;6084140;19;19906;-76
2023/12/28 09:21:40;;;;;;;10.05;2.75;;;;;;;10.16;100.00;100955.31;6084423;19;20632;-76
2023/12/28 09:23:49;;;;;;;14.02;3.00;;;;;;;10.21;100.00;100958.63;6086138;19;20594;-75
2023/12/28 09:25:54;;;;;;;9.63;2.72;;;;;;;10.23;100.00;100950.72;6086553;19;20002;-75
2023/12/28 09:27:59;;;;;;;12.10;3.80;;;;;;;10.25;100.00;100973.38;6085159;19;20475;-76
2023/12/28 09:30:07;;;;;;;17.27;3.78;;;;;;;10.19;100.00;100976.25;6085972;19;20010;-75
2023/12/28 09:32:12;;;;;;;12.80;3.58;;;;;;;10.13;100.00;100972.97;6086448;19;20010;-74
2023/12/28 09:34:17;;;;;;;12.27;3.40;;;;;;;10.12;100.00;100980.00;6084567;19;20034;-73
2023/12/28 09:36:22;;;;;;;16.50;3.10;;;;;;;9.94;100.00;100980.66;6084572;19;21003;-75
2023/12/28 09:38:27;;;;;;;16.25;3.03;;;;;;;9.95;100.00;100993.72;6084349;19;20483;-74
2023/12/28 09:40:36;;;;;;;13.88;2.50;;;;;;;9.97;100.00;100983.16;6083763;19;20031;-75
2023/12/28 09:43:04;;;;;;;9.02;2.97;;;;;;;9.99;100.00;100984.81;6080345;19;20078;-74
2023/12/28 09:45:12;;;;;;;19.08;3.28;;;;;;;9.95;100.00;100990.22;6081866;19;20479;-74